Welcome to our Virtual Airline
Sign-in:

Flight MFC51161

  • Submitted By: John Dean
  • Departure Airport: Shishmaref (PASH)
  • Arrival Airport: Port Clarence CGS (KPC)
  • Aircraft: AC 500 (NAC500MM)
  • Flight Time: 01.06.03
  • Date Submitted: 2020/02/06
  • Route: STOP-OVER AT 1. TIN CITY LRRS (PATC), 2. BREVIG MISSION (KTS)
  • Status: Accepted
Flight Details
Gross Revenue:
(3 load / $ 132.00 per unit
$ 396.00
Fuel Cost:
(73.482 fuel used @ 5.1 / unit)
$ 374.76

Additional Log Information:

View Log

[19:58] ----- Flight Opened -----
[19:58] Cigar Box - 1.1.4.0
[19:58] FS: FSX
[19:58] FSUIPC: v4.973
[19:58] Flight Number: MFC51161
[19:58] FS Aircraft: AC500 N687AK
[19:58] FS Model: AC500
[19:58] FS Type: ROCKWELL
[19:58] Departure: PASH
[19:58] Arrival: KPC
[19:58] Flight Level: 2500
[19:58] Flight Type: H
[19:58] Passengers: 3
[19:58] FOB: 930 lbs
[19:58] Gate: 2 - PASH
[19:58] Crash Detection: Disabled
[19:58] Crash Detection Aircraft: Disabled
[19:58] Engines: 2 Piston
[19:58] NOTE: Boarding has started
[19:58] FS: Paused
[19:58] Parking Brake: Engaged
[19:58] Engine 1: Started
[19:58] Engine 2: Started
[19:58] Light Data: Beacon ON
[19:58] Main Door Closed
[19:58] COM1: 128.30
[19:58] COM2: 127.80
[19:58] Transponder: 1200
[19:58] NAV1: 113.70
[19:58] NAV2: 110.60
[19:58] ADF1: 284.0
[19:58] ADF2: 240.0
[19:58] Navigation Mode: NAV
[19:58] FS: Unpaused
[19:58] Light Data: Navigation ON
[19:58] Light Data: Landing lights ON
[19:58] Light Data: Taxi lights ON
[19:58] Light Data: Strobe lights ON
[19:58] Light Data: Instrument lights ON
[19:58] Light Data: Recognition lights ON
[19:58] Light Data: Wing lights ON
[19:58] Light Data: Logo lights ON
[19:58] Light Data: Cabin lights ON
[19:58] Navigation Mode: GPS
[20:01] NOTE: Pushing back
[20:03] COM1: 123.00
[20:03] Parking Brake: Released
[20:04] NOTE: Taxi started
[20:05] NOTE: ----- TAKE OFF -----
[20:05] GS: 89 knots
[20:05] TAS: 90 knots
[20:05] IAS: 90 knots
[20:05] VS: 24 fpm
[20:05] FOB: 928 lbs
[20:05] Heading: 245°
[20:05] Pitch: 6°
[20:05] Bank: 0°
[20:05] Aircraft Weight: 5588.63 lbs
[20:05] Nearest Airport: PASH
[20:05] Distance: 0.19 miles
[20:05] Runway: ???
[20:05] Ground Surface: Asphalt
[20:05] Ground Condition: Normal
[20:05] NOTE: Weather Report
[20:05] Wind Heading: 345°
[20:05] Wind Speed: 0 knots
[20:05] OAT: 14° C
[20:05] TAT: 16° C
[20:05] Precipitation: None
[20:05] Dew Point: 4° C
[20:05] Visibility: 62 miles
[20:05] METAR:
[20:05] NOTE: Climb started
[20:05] Landing Gear: Retracted
[20:05] GS: 97 knots
[20:05] TAS: 98 knots
[20:05] IAS: 98 knots
[20:05] VS: 623 fpm
[20:05] AGL: 23 ft
[20:05] AMSL: 32 ft
[20:05] Autopilot: Engaged
[20:05] AGL: 141 ft
[20:05] AMSL: 150 ft
[20:05] View Mode: Spot Plane
[20:08] NOTE: TOC reached
[20:08] NOTE: Cruise started
[20:08] GS: 159 knots
[20:08] TAS: 159 knots
[20:08] IAS: 150 knots
[20:08] VS: 199 fpm
[20:08] FOB: 913 lbs
[20:08] Heading: 217°
[20:08] Pitch: 0°
[20:08] Bank: 0°
[20:08] Aircraft Weight: 5573.92 lbs
[20:16] COM1: 126.20
[20:21] Recovery: Flight Saved
[20:22] NOTE: TOD reached
[20:22] NOTE: Descent started
[20:22] GS: 165 knots
[20:22] TAS: 166 knots
[20:22] IAS: 162 knots
[20:22] VS: -656 fpm
[20:22] FOB: 868 lbs
[20:22] Heading: 216°
[20:22] Pitch: 2°
[20:22] Bank: 0°
[20:22] Aircraft Weight: 5528.85 lbs
[20:22] NOTE: On approach
[20:24] Landing Gear: Extended
[20:24] GS: 143 knots
[20:24] TAS: 144 knots
[20:24] IAS: 140 knots
[20:24] VS: -730 fpm
[20:24] AGL: 1765 ft
[20:24] AMSL: 1860 ft
[20:25] Flaps: Position 1
[20:25] GS: 124 knots
[20:25] TAS: 125 knots
[20:25] IAS: 123 knots
[20:25] VS: -129 fpm
[20:26] Autopilot: Disengaged
[20:26] AGL: 1391 ft
[20:26] AMSL: 1479 ft
[20:26] Flaps: Position 2
[20:26] GS: 103 knots
[20:26] TAS: 104 knots
[20:26] IAS: 102 knots
[20:26] VS: -87 fpm
[20:27] Flaps: Position 3
[20:27] GS: 95 knots
[20:27] TAS: 95 knots
[20:27] IAS: 94 knots
[20:27] VS: -789 fpm
[20:28] NOTE: ----- LANDED -----
[20:28] Landing Rate: -39.99 fpm
[20:28] GS: 58 knots
[20:28] TAS: 58 knots
[20:28] IAS: 58 knots
[20:28] VS: -48 fpm
[20:28] FOB: 857 lbs
[20:28] Heading: 162°
[20:28] Pitch: 6°
[20:28] Bank: 0°
[20:28] Aircraft Weight: 5517.21 lbs
[20:28] Nearest Airport: PATC
[20:28] Distance: 0.58 miles
[20:28] Runway: 16 - PATC
[20:28] Ground Surface: Gravel
[20:28] Ground Condition: Normal
[20:28] NOTE: Weather Report
[20:28] Wind Heading: 347°
[20:28] Wind Speed: 0 knots
[20:28] OAT: 14° C
[20:28] TAT: 15° C
[20:28] Precipitation: None
[20:28] Dew Point: 4° C
[20:28] Visibility: 62 miles
[20:28] METAR: KPCZ 060215Z AUTO 00000KT 10SM CLR M08/M12 A2992 RMK AO2 T10791120 KPCW 060155Z AUTO 08018KT 2 1/2SM -SN BKN009 OVC012 M02/M03 A2985 RMK AO2 P0004 KPCD 060215Z AUTO 34008KT 280V350 7SM OVC007 00/00 A2972 RMK AO2 T00031001 KPCM 060215Z AUTO 17005KT 10SM SCT049 OVC070 23/21 A2997 RMK AO2
[20:28] View Mode: Spot Plane
[20:28] Flaps: Position 0
[20:28] NOTE: Taxi started
[20:30] Parking Brake: Engaged
[20:30] NOTE: Arrived
[20:30] Main Door Open
[20:31] Main Door Closed
[20:32] Parking Brake: Released
[20:34] Landing Gear: Retracted
[20:34] GS: 95 knots
[20:34] TAS: 98 knots
[20:34] IAS: 98 knots
[20:34] VS: 2458 fpm
[20:34] AGL: 135 ft
[20:34] AMSL: 318 ft
[20:34] View Mode: Spot Plane
[20:34] Autopilot: Engaged
[20:34] AGL: 312 ft
[20:34] AMSL: 495 ft
[20:41] COM1: 123.00
[20:45] Recovery: Flight Saved
[20:49] Landing Gear: Extended
[20:49] GS: 143 knots
[20:49] TAS: 144 knots
[20:49] IAS: 144 knots
[20:49] VS: -575 fpm
[20:49] AGL: 702 ft
[20:49] AMSL: 702 ft
[20:49] Flaps: Position 1
[20:49] GS: 120 knots
[20:49] TAS: 120 knots
[20:49] IAS: 120 knots
[20:49] VS: 23 fpm
[20:52] Autopilot: Disengaged
[20:52] AGL: 492 ft
[20:52] AMSL: 492 ft
[20:52] Flaps: Position 2
[20:52] GS: 101 knots
[20:52] TAS: 101 knots
[20:52] IAS: 101 knots
[20:52] VS: 20 fpm
[20:53] Flaps: Position 3
[20:53] GS: 93 knots
[20:53] TAS: 94 knots
[20:53] IAS: 94 knots
[20:53] VS: -276 fpm
[20:53] NOTE: ----- LANDED -----
[20:53] Landing Rate: -193.77 fpm
[20:53] GS: 62 knots
[20:53] TAS: 63 knots
[20:53] IAS: 63 knots
[20:53] VS: -194 fpm
[20:53] FOB: 790 lbs
[20:53] Heading: 47°
[20:53] Pitch: 4°
[20:53] Bank: 0°
[20:53] Aircraft Weight: 5450.92 lbs
[20:53] Nearest Airport: KTS
[20:53] Distance: 0.24 miles
[20:53] Runway: 4 - KTS
[20:53] Ground Surface: Gravel
[20:53] Ground Condition: Normal
[20:53] NOTE: Weather Report
[20:53] Wind Heading: 346°
[20:53] Wind Speed: 0 knots
[20:53] OAT: 14° C
[20:53] TAT: 15° C
[20:53] Precipitation: None
[20:53] Dew Point: 4° C
[20:53] Visibility: 62 miles
[20:53] METAR: KPCZ 060215Z AUTO 00000KT 10SM CLR M08/M12 A2992 RMK AO2 T10791120 KPCW 060155Z AUTO 08018KT 2 1/2SM -SN BKN009 OVC012 M02/M03 A2985 RMK AO2 P0004 KPCD 060215Z AUTO 34008KT 280V350 7SM OVC007 00/00 A2972 RMK AO2 T00031001 KPCM 060215Z AUTO 17005KT 10SM SCT049 OVC070 23/21 A2997 RMK AO2
[20:53] View Mode: Spot Plane
[20:53] Flaps: Position 0
[20:55] Parking Brake: Engaged
[20:55] Main Door Open
[20:56] Main Door Closed
[20:57] Flaps: Position 1
[20:57] Parking Brake: Released
[20:59] Autopilot: Engaged
[20:59] AGL: 46 ft
[20:59] AMSL: 78 ft
[20:59] View Mode: Spot Plane
[20:59] Landing Gear: Retracted
[20:59] GS: 99 knots
[20:59] TAS: 100 knots
[20:59] IAS: 100 knots
[20:59] VS: 1146 fpm
[20:59] AGL: 266 ft
[20:59] AMSL: 308 ft
[21:00] COM1: 122.90
[21:01] Landing Gear: Extended
[21:01] GS: 106 knots
[21:01] TAS: 108 knots
[21:01] IAS: 107 knots
[21:01] VS: -65 fpm
[21:01] AGL: 492 ft
[21:01] AMSL: 492 ft
[21:05] Flaps: Position 2
[21:05] GS: 99 knots
[21:05] TAS: 100 knots
[21:05] IAS: 99 knots
[21:05] VS: -14 fpm
[21:06] Autopilot: Disengaged
[21:06] AGL: 495 ft
[21:06] AMSL: 495 ft
[21:07] Flaps: Position 3
[21:07] GS: 85 knots
[21:07] TAS: 86 knots
[21:07] IAS: 86 knots
[21:07] VS: -220 fpm
[21:08] NOTE: ----- LANDED -----
[21:08] Landing Rate: -163.02 fpm
[21:08] GS: 56 knots
[21:08] TAS: 56 knots
[21:08] IAS: 56 knots
[21:08] VS: -162 fpm
[21:08] FOB: 768 lbs
[21:08] Heading: 163°
[21:08] Pitch: 11°
[21:08] Bank: 0°
[21:08] Aircraft Weight: 5428.59 lbs
[21:08] Nearest Airport: KPC
[21:08] Distance: 0.80 miles
[21:08] Runway: 16 - KPC
[21:08] Ground Surface: Long Grass
[21:08] Ground Condition: Normal
[21:08] NOTE: Weather Report
[21:08] Wind Heading: 346°
[21:08] Wind Speed: 0 knots
[21:08] OAT: 14° C
[21:08] TAT: 15° C
[21:08] Precipitation: None
[21:08] Dew Point: 4° C
[21:08] Visibility: 62 miles
[21:08] METAR: KPCZ 060215Z AUTO 00000KT 10SM CLR M08/M12 A2992 RMK AO2 T10791120 KPCW 060155Z AUTO 08018KT 2 1/2SM -SN BKN009 OVC012 M02/M03 A2985 RMK AO2 P0004 KPCD 060215Z AUTO 34008KT 280V350 7SM OVC007 00/00 A2972 RMK AO2 T00031001 KPCM 060215Z AUTO 17005KT 10SM SCT049 OVC070 23/21 A2997 RMK AO2
[21:08] View Mode: Spot Plane
[21:08] Flaps: Position 0
[21:11] Parking Brake: Engaged
[21:11] Engine 1: Stopped
[21:11] Engine 2: Stopped
[21:11] Main Door Open
[21:11] Light Data: Navigation OFF
[21:11] Light Data: Beacon OFF
[21:11] Light Data: Landing lights OFF
[21:11] Light Data: Taxi lights OFF
[21:11] Light Data: Strobe lights OFF
[21:11] Light Data: Instrument lights OFF
[21:11] Light Data: Recognition lights OFF
[21:11] Light Data: Wing lights OFF
[21:11] Light Data: Logo lights OFF
[21:11] Light Data: Cabin lights OFF
[21:13] FS: Paused
[21:13] Gate: 1 - KPC
[21:13] NOTE: Flight Completed
[21:13] FS Aircraft: AC500 N687AK
[21:13] FS Model: AC500
[21:13] FS Type: ROCKWELL
[21:13] FOB: 767 lbs
[21:13] Fuel Used: 162 lbs
[21:13] Flight Time: 01:06:03
[21:13] Flight Time (Dawn): 00:00:00
[21:13] Flight Time (Day): 01:06:03
[21:13] Flight Time (Dusk): 00:00:00
[21:13] Flight Time (Night): 00:00:00
[21:13] Total Landings: 3
[21:13] MaxSim Rate: 1x
[21:13] Cigar Box - 1.1.4.0
[21:13] ----- Flight Closed -----

Route Map